Drogeham, Netherlands
Current Conditions -  °F | °C
As of 1:47 AM on Tuesday 25 Nov 2014 (Local Time) from EHLW Reporting Station
Haze Haze  
Wind Chill: 37°   Ceiling: Unl
Heat Index: 37°   Visibility: 6mi
Dew Point: 37°   Wind: 3mph
Humidity: 100%   Direction: 240°WSW
Pressure: 30.3"   Gusts: NA
Location:  53.2°N, 6.11°E
Report Text: EHLW 250047Z AUTO 24003KT 9000 BR NCD 03/03 Q1026 BLU
Loading
Personal Weather Stations






























Interactive Weather Map New forecast layout! Learn more

10-Day Weather Forecast

Advertisements
Track Severe Weather on mobile